Map

Track Data

SID SEASON NUMBER BASIN SUBBASIN NAME ISO_TIME NATURE LAT LON WMO_WIND WMO_PRES WMO_AGENCY TRACK_TYPE DIST2LAND LANDFALL IFLAG USA_AGENCY USA_ATCF_ID USA_LAT USA_LON USA_RECORD USA_STATUS USA_WIND USA_PRES USA_SSHS USA_R34_NE USA_R34_SE USA_R34_SW USA_R34_NW USA_R50_NE USA_R50_SE USA_R50_SW USA_R50_NW USA_R64_NE USA_R64_SE USA_R64_SW USA_R64_NW USA_POCI USA_ROCI USA_RMW USA_EYE TOKYO_LAT TOKYO_LON TOKYO_GRADE TOKYO_WIND TOKYO_PRES TOKYO_R50_DIR TOKYO_R50_LONG TOKYO_R50_SHORT TOKYO_R30_DIR TOKYO_R30_LONG TOKYO_R30_SHORT TOKYO_LAND CMA_LAT CMA_LON CMA_CAT CMA_WIND CMA_PRES HKO_LAT HKO_LON HKO_CAT HKO_WIND HKO_PRES NEWDELHI_LAT NEWDELHI_LON NEWDELHI_GRADE NEWDELHI_WIND NEWDELHI_PRES NEWDELHI_CI NEWDELHI_DP NEWDELHI_POCI REUNION_LAT REUNION_LON REUNION_TYPE REUNION_WIND REUNION_PRES REUNION_TNUM REUNION_CI REUNION_RMW REUNION_R34_NE REUNION_R34_SE REUNION_R34_SW REUNION_R34_NW REUNION_R50_NE REUNION_R50_SE REUNION_R50_SW REUNION_R50_NW REUNION_R64_NE REUNION_R64_SE REUNION_R64_SW REUNION_R64_NW BOM_LAT BOM_LON BOM_TYPE BOM_WIND BOM_PRES BOM_TNUM BOM_CI BOM_RMW BOM_R34_NE BOM_R34_SE BOM_R34_SW BOM_R34_NW BOM_R50_NE BOM_R50_SE BOM_R50_SW BOM_R50_NW BOM_R64_NE BOM_R64_SE BOM_R64_SW BOM_R64_NW BOM_ROCI BOM_POCI BOM_EYE BOM_POS_METHOD BOM_PRES_METHOD NADI_LAT NADI_LON NADI_CAT NADI_WIND NADI_PRES WELLINGTON_LAT WELLINGTON_LON WELLINGTON_WIND WELLINGTON_PRES DS824_LAT DS824_LON DS824_STAGE DS824_WIND DS824_PRES TD9636_LAT TD9636_LON TD9636_STAGE TD9636_WIND TD9636_PRES TD9635_LAT TD9635_LON TD9635_WIND TD9635_PRES TD9635_ROCI NEUMANN_LAT NEUMANN_LON NEUMANN_CLASS NEUMANN_WIND NEUMANN_PRES MLC_LAT MLC_LON MLC_CLASS MLC_WIND MLC_PRES USA_GUST BOM_GUST BOM_GUST_PER REUNION_GUST REUNION_GUST_PER USA_SEAHGT USA_SEARAD_NE USA_SEARAD_SE USA_SEARAD_SW USA_SEARAD_NW STORM_SPEED STORM_DIR
1974016S17165 1974 5 SP MM MONICA 1974-01-15 12:00:00 TS -16.5000 164.800 main 228 226 O________OO___ jtwc_sh SH151974 -16.5000 164.800 -1 -16.5000 164.800 TC -16.5000 164.800 2 12 157
1974016S17165 1974 5 SP MM MONICA 1974-01-15 15:00:00 TS -17.0609 165.051 main 239 239 P________PP___ SH151974 -17.0826 165.057 -1 -17.0826 165.057 TC -17.0174 165.039 2 12 156
1974016S17165 1974 5 SP MM MONICA 1974-01-15 18:00:00 TS -17.5693 165.291 main 254 251 O________OP___ jtwc_sh SH151974 -17.6000 165.300 -1 -17.6000 165.300 TC -17.5078 165.273 2 10 155
1974016S17165 1974 5 SP MM MONICA 1974-01-15 21:00:00 TS -17.9831 165.509 main 262 256 P________PP___ SH151974 -18.0025 165.515 -1 -18.0025 165.515 TC -17.9443 165.496 2 8 152
1974016S17165 1974 5 SP MM MONICA 1974-01-16 00:00:00 TS -18.3000 165.700 main 256 243 O________OO_O_ jtwc_sh SH151974 -18.3000 165.700 -1 -18.3000 165.700 TC -18.3000 165.700 2 -18.3000 165.700 TC 20 6 148
1974016S17165 1974 5 SP MM MONICA 1974-01-16 03:00:00 TS -18.5248 165.863 main 249 238 P________PP_P_ SH151974 -18.5300 165.858 -1 -18.5300 165.858 TC -18.5580 165.880 2 -18.4375 165.847 TC 20 5 143
1974016S17165 1974 5 SP MM MONICA 1974-01-16 06:00:00 TS -18.6906 166.010 main 238 237 O________OP_O_ jtwc_sh SH151974 -18.7000 166.000 -1 -18.7000 166.000 TC -18.7398 166.038 2 -18.6000 166.000 TC 20 4 138
1974016S17165 1974 5 SP MM MONICA 1974-01-16 09:00:00 TS -18.8479 166.162 main 244 231 P________PP_P_ SH151974 -18.8575 166.158 -1 -18.8575 166.158 TC -18.8768 166.177 2 -18.8000 166.157 TC 20 4 139
1974016S17165 1974 5 SP MM MONICA 1974-01-16 12:00:00 TS -19.0000 166.300 main 231 222 O________OO_O_ jtwc_sh SH151974 -19.0000 166.300 -1 -19.0000 166.300 TC -19.0000 166.300 2 -19.0000 166.300 TC 20 4 143
1974016S17165 1974 5 SP MM MONICA 1974-01-16 15:00:00 TS -19.1526 166.402 main 218 215 P________PP_P_ SH151974 -19.1500 166.408 -1 -19.1500 166.408 TC -19.1529 166.386 2 -19.1575 166.408 TC 20 4 149
1974016S17165 1974 5 SP MM MONICA 1974-01-16 18:00:00 TS -19.2999 166.491 main 215 207 O________OP_O_ jtwc_sh SH151974 -19.3000 166.500 -1 -19.3000 166.500 TC -19.2996 166.463 2 -19.3000 166.500 TC 20 3 151
1974016S17165 1974 5 SP MM MONICA 1974-01-16 21:00:00 TS -19.4472 166.573 main 214 206 P________PP_P_ SH151974 -19.4499 166.578 -1 -19.4499 166.578 TC -19.4466 166.558 2 -19.4424 166.578 TC 22 4 146
1974016S17165 1974 5 SP MM MONICA 1974-01-17 00:00:00 TS -19.6000 166.700 main 206 206 O________OO_O_ jtwc_sh SH151974 -19.6000 166.700 -1 -19.6000 166.700 TC -19.6000 166.700 2 -19.6000 166.700 TC 25 5 134
1974016S17165 1974 5 SP MM MONICA 1974-01-17 03:00:00 TS -19.7709 166.931 main 206 206 P________PP_P_ SH151974 -19.7425 166.920 -1 -19.7425 166.920 TC -19.7758 166.904 2 -19.8227 166.980 TC 25 6 126
1974016S17165 1974 5 SP MM MONICA 1974-01-17 06:00:00 TS -19.9393 167.190 main 212 200 O________OP_O_ jtwc_sh SH151974 -19.9000 167.200 -1 -19.9000 167.200 TC -19.9573 167.160 2 -20.0000 167.200 TC 25 5 127
1974016S17165 1974 5 SP MM MONICA 1974-01-17 09:00:00 TS -20.0837 167.368 main 206 202 P________PP_P_ SH151974 -20.0999 167.485 -1 -20.0999 167.485 TC -20.1351 167.461 2 -19.9997 167.040 TC 27 4 128
1974016S17165 1974 5 SP MM MONICA 1974-01-17 12:00:00 TS -20.2118 167.565 40 990 wellington main 208 206 O_______OOO_O_ jtwc_sh SH151974 -20.3000 167.800 -1 -20.0000 167.000 40 990 -20.3000 167.800 TC -20.3000 167.800 2 -20.0000 167.000 TC 30 6 117
1974016S17165 1974 5 SP MM MONICA 1974-01-17 15:00:00 TS -20.3552 167.946 main 212 212 P_______PPP_P_ SH151974 -20.4649 168.128 -1 -20.2370 167.653 40 990 -20.4649 168.128 TC -20.4020 168.117 2 -20.1482 167.560 TC 30 9 111
1974016S17165 1974 5 SP MM MONICA 1974-01-17 18:00:00 TS -20.5183 168.417 main 236 235 O_______POP_O_ jtwc_sh SH151974 -20.6000 168.500 -1 -20.4881 168.275 40 990 -20.6000 168.500 TC -20.4960 168.475 2 -20.4000 168.300 TC 30 9 111
1974016S17165 1974 5 SP MM MONICA 1974-01-17 21:00:00 TS -20.6938 168.876 main 258 258 P_______PPP_P_ SH151974 -20.6846 168.898 -1 -20.7700 168.835 40 990 -20.6846 168.898 TC -20.6172 168.896 2 -20.7124 168.853 TC 30 10 114
1974016S17165 1974 5 SP MM MONICA 1974-01-18 00:00:00 TS -20.9200 169.360 40 990 wellington main 287 282 O_______OOO_O_ jtwc_sh SH151974 -20.8000 169.400 -1 -21.1000 169.300 40 990 -20.8000 169.400 TC -20.8000 169.400 2 -21.1000 169.300 TC 30 11 118
1974016S17165 1974 5 SP MM MONICA 1974-01-18 03:00:00 TS -21.2008 169.892 main 319 319 P_______PPP_P_ SH151974 -20.9976 170.063 -1 -21.4917 169.653 40 990 -20.9976 170.063 TC -20.9896 170.052 2 -21.5273 169.630 TC 30 12 122
1974016S17165 1974 5 SP MM MONICA 1974-01-18 06:00:00 TS -21.5596 170.443 main 357 357 O_______POP_O_ jtwc_sh SH151974 -21.3000 170.800 -1 -21.9431 169.933 40 990 -21.3000 170.800 TC -21.2551 170.780 2 -22.0000 169.900 TC 30 13 127
1974016S17165 1974 5 SP MM MONICA 1974-01-18 09:00:00 TS -21.9702 170.994 main 412 412 P_______PPP_P_ SH151974 -21.6452 171.538 -1 -22.4480 170.197 40 990 -21.6452 171.538 TC -21.6428 171.518 2 -22.4698 170.178 TC 32 14 134
1974016S17165 1974 5 SP MM MONICA 1974-01-18 12:00:00 TS -22.5200 171.520 40 990 wellington main 462 462 O_______OOO_O_ jtwc_sh SH151974 -22.2000 172.200 -1 -23.0000 170.500 40 990 -22.2000 172.200 TC -22.2000 172.200 2 -23.0000 170.500 TC 35 16 146
1974016S17165 1974 5 SP MM MONICA 1974-01-18 15:00:00 TS -23.2789 171.958 main 524 524 P_______PPP_P_ SH151974 -23.0745 172.681 -1 -23.5746 170.812 40 990 -23.0745 172.681 TC -23.0359 172.699 2 -23.6350 170.920 TC 35 18 154
1974016S17165 1974 5 SP MM MONICA 1974-01-18 18:00:00 TS -24.1442 172.386 main 587 587 O_______POP_O_ jtwc_sh SH151974 -24.1000 173.100 -1 -24.1918 171.188 40 990 -24.1000 173.100 TC -24.0291 173.143 2 -24.3000 171.400 TC 35 19 155
1974016S17165 1974 5 SP MM MONICA 1974-01-18 21:00:00 TS -24.9982 172.842 main 662 662 P_______PPP_P_ SH151974 -25.1020 173.563 -1 -24.8383 171.695 40 990 -25.1020 173.563 TC -25.0579 173.591 2 -24.8910 171.797 TC 32 19 151
1974016S17165 1974 5 SP MM MONICA 1974-01-19 00:00:00 TS -25.8000 173.420 40 990 wellington main 757 757 O_______OOO_O_ jtwc_sh SH151974 -26.0000 174.100 -1 -25.5000 172.400 40 990 -26.0000 174.100 TC -26.0000 174.100 2 -25.5000 172.400 TC 30 19 140
1974016S17165 1974 5 SP MM MONICA 1974-01-19 03:00:00 TS -26.4683 174.221 main 866 858 P_______PPP_P_ SH151974 -26.6599 174.763 -1 -26.1354 173.411 40 990 -26.6599 174.763 TC -26.6860 174.728 2 -26.2006 173.437 TC 30 20 129
1974016S17165 1974 5 SP MM MONICA 1974-01-19 06:00:00 TS -27.0691 175.149 main 849 820 O_______POP_O_ jtwc_sh SH151974 -27.2000 175.500 -1 -26.7768 174.619 40 990 -27.2000 175.500 TC -27.2685 175.428 2 -26.9000 174.700 TC 30 21 125
1974016S17165 1974 5 SP MM MONICA 1974-01-19 09:00:00 TS -27.6454 176.106 main 824 798 P_______PPP_P_ SH151974 -27.7570 176.229 -1 -27.4289 175.919 40 990 -27.7570 176.229 TC -27.7917 176.188 2 -27.4925 175.967 TC 30 21 124
1974016S17165 1974 5 SP MM MONICA 1974-01-19 12:00:00 TS -28.2200 177.080 40 990 wellington main 802 784 O_______OOO_O_ jtwc_sh SH151974 -28.3000 177.000 -1 -28.1000 177.200 40 990 -28.3000 177.000 TC -28.3000 177.000 2 -28.1000 177.200 TC 30 21 125
1974016S17165 1974 5 SP MM MONICA 1974-01-19 15:00:00 TS -28.8327 178.000 main 791 778 P_______PPP_P_ SH151974 -28.8494 177.821 -1 -28.8315 178.309 40 990 -28.8494 177.821 TC -28.7999 177.775 2 -28.8333 178.274 TC 27 20 127
1974016S17165 1974 5 SP MM MONICA 1974-01-19 18:00:00 TS -29.4569 178.938 main 775 775 O_______POP_O_ jtwc_sh SH151974 -29.4000 178.700 -1 -29.5817 179.382 40 990 -29.4000 178.700 TC -29.3026 178.607 2 -29.6000 179.300 TC 25 21 127
1974016S17165 1974 5 SP MM MONICA 1974-01-19 21:00:00 TS -30.0674 179.911 main 780 780 P_______PPP_P_ SH151974 -29.9186 179.593 -1 -30.3162 -179.560 40 990 -29.9186 179.593 TC -29.8542 179.535 2 -30.3292 -179.607 TC 25 21 125
1974016S17165 1974 5 SP MM MONICA 1974-01-20 00:00:00 TS -30.7000 180.960 40 990 wellington main 806 778 O_______OOO_O_ jtwc_sh SH151974 -30.5000 -179.400 -1 -31.0000 -178.500 40 990 -30.5000 180.600 TC -30.5000 -179.400 2 -31.0000 -178.500 TC 25 23 124
1974016S17165 1974 5 SP MM MONICA 1974-01-20 03:00:00 TS -31.3635 182.105 main 771 755 P_______PPP_P_ SH151974 -31.1810 -178.244 -1 -31.6067 -177.423 37 991 -31.1810 -178.244 TC -31.2699 -178.165 2 -31.5790 -177.398 TC 22 25 124
1974016S17165 1974 5 SP MM MONICA 1974-01-20 06:00:00 TS -32.0767 183.358 main 761 757 O_______POP_O_ jtwc_sh SH151974 -32.0000 -176.900 -1 -32.1463 -176.329 35 993 -32.0000 183.100 TC -32.1370 -176.779 2 -32.1000 -176.300 TC 20 27 124
1974016S17165 1974 5 SP MM MONICA 1974-01-20 09:00:00 TS -32.8465 184.714 main 776 773 P_______PPP_P_ SH151974 -32.9649 -175.364 -1 -32.6378 -175.221 32 995 -32.9649 -175.364 TC -33.0604 -175.277 2 -32.6044 -175.203 TC 17 28 124
1974016S17165 1974 5 SP MM MONICA 1974-01-20 12:00:00 TS -33.6400 186.140 30 997 wellington main 815 O_______OOO_O_ jtwc_sh SH151974 -34.0000 -173.700 -1 -33.1000 -174.100 30 997 -34.0000 186.300 TC -34.0000 -173.700 6 -33.1000 -174.100 TC 15 29 124

Digital Typhoon Data and Search

About IBTrACS Database

This database is a web-friendly format of International Best Track Archive for Climate Stewardship (IBTrACS), a global best track data archive curated by NOAA dating back to 1842.

Updated: 2021-11-26